createdAt,value
2022-11-20T00:01:44.238Z,-0.89
2022-11-20T00:05:12.173Z,-0.91
2022-11-20T00:08:39.422Z,-0.92
2022-11-20T00:12:06.760Z,-0.92
2022-11-20T00:15:34.314Z,-0.92
2022-11-20T00:19:01.105Z,-0.93
2022-11-20T00:22:27.822Z,-0.95
2022-11-20T00:25:54.802Z,-0.94
2022-11-20T00:29:21.681Z,-0.94
2022-11-20T00:32:48.737Z,-0.96
2022-11-20T00:36:17.961Z,-0.95
2022-11-20T00:39:44.624Z,-0.95
2022-11-20T00:43:11.297Z,-0.95
2022-11-20T00:46:37.991Z,-0.96
2022-11-20T00:50:05.002Z,-0.95
2022-11-20T00:53:31.914Z,-0.94
2022-11-20T00:56:58.878Z,-0.95
2022-11-20T01:00:25.899Z,-0.98
2022-11-20T01:03:54.507Z,-1.02
2022-11-20T01:07:21.419Z,-1.06
2022-11-20T01:10:48.305Z,-1.11
2022-11-20T01:14:17.855Z,-1.15
2022-11-20T01:17:43.038Z,-1.19
2022-11-20T01:21:11.883Z,-1.25
2022-11-20T01:24:38.476Z,-1.29
2022-11-20T01:28:05.126Z,-1.32
2022-11-20T01:31:34.834Z,-1.36
2022-11-20T01:35:01.553Z,-1.39
2022-11-20T01:38:28.140Z,-1.40
2022-11-20T01:42:13.838Z,-1.43
2022-11-20T01:46:16.909Z,-1.43
2022-11-20T01:49:48.682Z,-1.42
2022-11-20T01:53:20.352Z,-1.43
2022-11-20T01:56:50.339Z,-1.42
2022-11-20T02:00:20.790Z,-1.40
2022-11-20T02:03:48.585Z,-1.39
2022-11-20T02:07:15.759Z,-1.38
2022-11-20T02:10:42.452Z,-1.37
2022-11-20T02:14:09.853Z,-1.36
2022-11-20T02:17:36.737Z,-1.35
2022-11-20T02:21:08.636Z,-1.35
2022-11-20T02:24:35.620Z,-1.34
2022-11-20T02:28:02.329Z,-1.34
2022-11-20T02:31:29.136Z,-1.33
2022-11-20T02:34:55.915Z,-1.33
2022-11-20T02:38:22.951Z,-1.33
2022-11-20T02:41:49.901Z,-1.33
2022-11-20T02:45:16.617Z,-1.33
2022-11-20T02:48:43.460Z,-1.32
2022-11-20T02:52:10.073Z,-1.31
2022-11-20T02:55:37.262Z,-1.31
2022-11-20T02:59:04.180Z,-1.31
2022-11-20T03:02:33.405Z,-1.32
2022-11-20T03:06:02.033Z,-1.31
2022-11-20T03:09:28.696Z,-1.31
2022-11-20T03:12:58.184Z,-1.31
2022-11-20T03:16:24.777Z,-1.30
2022-11-20T03:19:51.691Z,-1.27
2022-11-20T03:23:18.450Z,-1.26
2022-11-20T03:26:45.351Z,-1.24
2022-11-20T03:30:13.691Z,-1.22
2022-11-20T03:33:40.933Z,-1.20
2022-11-20T03:37:08.091Z,-1.18
2022-11-20T03:40:35.613Z,-1.18
2022-11-20T03:44:05.219Z,-1.20
2022-11-20T03:47:32.006Z,-1.19
2022-11-20T03:51:10.806Z,-1.19
2022-11-20T03:54:37.487Z,-1.17
2022-11-20T03:58:04.103Z,-1.16
2022-11-20T04:01:33.621Z,-1.17
2022-11-20T04:05:00.792Z,-1.18
2022-11-20T04:08:27.729Z,-1.20
2022-11-20T04:11:54.636Z,-1.22
2022-11-20T04:15:21.279Z,-1.23
2022-11-20T04:18:48.197Z,-1.23
2022-11-20T04:22:15.176Z,-1.23
2022-11-20T04:25:42.157Z,-1.22
2022-11-20T04:29:12.180Z,-1.21
2022-11-20T04:32:38.844Z,-1.20
2022-11-20T04:36:08.067Z,-1.20
2022-11-20T04:39:34.856Z,-1.20
2022-11-20T04:43:01.886Z,-1.19
2022-11-20T04:46:30.156Z,-1.19
2022-11-20T04:49:57.060Z,-1.20
2022-11-20T04:53:25.148Z,-1.20
2022-11-20T04:56:52.537Z,-1.20
2022-11-20T05:00:20.701Z,-1.18
2022-11-20T05:03:48.029Z,-1.16
2022-11-20T05:19:52.949Z,-0.84
2022-11-20T05:23:20.043Z,-0.80
2022-11-20T05:26:47.140Z,-0.88
2022-11-20T05:30:17.127Z,-0.96
2022-11-20T05:33:45.931Z,-1.02
2022-11-20T05:37:13.146Z,-1.07
2022-11-20T05:40:40.557Z,-1.10
2022-11-20T05:44:07.992Z,-1.14
2022-11-20T05:47:36.859Z,-1.18
2022-11-20T05:51:04.978Z,-1.23
2022-11-20T05:54:32.343Z,-1.27
2022-11-20T05:57:59.331Z,-1.31
2022-11-20T06:01:27.917Z,-1.34
2022-11-20T06:04:54.750Z,-1.36
2022-11-20T06:08:22.032Z,-1.38
2022-11-20T06:11:49.389Z,-1.39
2022-11-20T06:15:16.737Z,-1.41
2022-11-20T06:18:44.098Z,-1.42
2022-11-20T06:22:11.334Z,-1.43
2022-11-20T06:25:41.410Z,-1.44
2022-11-20T06:29:08.453Z,-1.43
2022-11-20T06:32:36.214Z,-1.42
2022-11-20T06:36:10.177Z,-1.42
2022-11-20T06:39:38.236Z,-1.40
2022-11-20T06:43:04.951Z,-1.40
2022-11-20T06:46:31.630Z,-1.39
2022-11-20T06:49:58.674Z,-1.38
2022-11-20T06:53:26.233Z,-1.38
2022-11-20T06:56:53.176Z,-1.35
2022-11-20T07:00:20.537Z,-1.34
2022-11-20T07:03:54.167Z,-1.32
2022-11-20T07:07:21.371Z,-1.29
2022-11-20T07:10:48.537Z,-1.26
2022-11-20T07:14:15.270Z,-1.24
2022-11-20T07:17:42.275Z,-1.20
2022-11-20T07:21:11.515Z,-1.16
2022-11-20T07:24:40.762Z,-1.13
2022-11-20T07:28:12.126Z,-1.11
2022-11-20T07:31:38.796Z,-1.09
2022-11-20T07:35:06.213Z,-1.06
2022-11-20T07:38:33.394Z,-1.02
2022-11-20T07:42:00.493Z,-0.97
2022-11-20T07:45:28.029Z,-0.92
2022-11-20T07:48:54.641Z,-0.88
2022-11-20T07:52:21.878Z,-0.83
2022-11-20T07:55:48.824Z,-0.77
2022-11-20T07:59:16.598Z,-0.68
2022-11-20T08:02:43.997Z,-0.61
2022-11-20T08:06:11.517Z,-0.54
2022-11-20T08:09:38.161Z,-0.46
2022-11-20T08:13:23.284Z,-0.42
2022-11-20T08:16:51.543Z,-0.36
2022-11-20T08:20:18.265Z,-0.31
2022-11-20T08:23:45.005Z,-0.25
2022-11-20T08:27:12.051Z,-0.20
2022-11-20T08:30:39.763Z,-0.15
2022-11-20T08:34:09.431Z,-0.08
2022-11-20T08:37:38.575Z,0.02
2022-11-20T08:41:24.731Z,0.12
2022-11-20T08:44:51.337Z,0.22
2022-11-20T08:48:18.205Z,0.33
2022-11-20T08:51:46.142Z,0.46
2022-11-20T08:55:14.574Z,0.58
2022-11-20T08:59:09.892Z,0.67
2022-11-20T09:02:28.696Z,0.75
2022-11-20T09:06:01.384Z,0.79
2022-11-20T09:09:28.131Z,0.86
2022-11-20T09:12:56.296Z,0.96
2022-11-20T09:16:23.196Z,1.05
2022-11-20T09:19:50.006Z,1.13
2022-11-20T09:23:17.010Z,1.18
2022-11-20T09:26:43.642Z,1.24
2022-11-20T09:30:12.673Z,1.34
2022-11-20T09:33:39.904Z,1.44
2022-11-20T09:37:07.883Z,1.54
2022-11-20T09:40:36.390Z,1.68
2022-11-20T09:44:10.192Z,1.85
2022-11-20T09:47:51.675Z,2.02
2022-11-20T09:51:30.336Z,2.09
2022-11-20T09:54:58.332Z,2.11
2022-11-20T09:58:33.309Z,2.08
2022-11-20T10:02:01.393Z,2.04
2022-11-20T10:05:32.224Z,2.04
2022-11-20T10:09:16.261Z,2.08
2022-11-20T10:12:59.419Z,2.12
2022-11-20T10:16:39.527Z,2.15
2022-11-20T10:20:23.229Z,2.13
2022-11-20T10:24:11.343Z,2.15
2022-11-20T10:28:08.989Z,2.15
2022-11-20T10:31:39.043Z,2.17
2022-11-20T10:35:16.203Z,2.26
2022-11-20T10:38:46.909Z,2.50
2022-11-20T10:42:18.336Z,2.66
2022-11-20T10:46:01.028Z,2.79
2022-11-20T10:49:27.704Z,2.82
2022-11-20T10:53:06.656Z,2.79
2022-11-20T10:56:42.382Z,2.68
2022-11-20T11:00:15.256Z,2.54
2022-11-20T11:03:44.440Z,2.52
2022-11-20T11:07:15.637Z,2.55
2022-11-20T11:10:48.283Z,2.61
2022-11-20T11:14:16.837Z,2.65
2022-11-20T11:17:49.761Z,2.57
2022-11-20T11:21:23.276Z,2.46
2022-11-20T11:24:56.417Z,2.36
2022-11-20T11:28:28.384Z,2.24
2022-11-20T11:32:04.581Z,2.13
2022-11-20T11:35:31.938Z,2.03
2022-11-20T11:38:59.213Z,1.91
2022-11-20T11:42:26.041Z,1.82
2022-11-20T11:45:58.027Z,1.77
2022-11-20T11:49:25.948Z,1.71
2022-11-20T11:53:00.466Z,1.66
2022-11-20T11:56:29.502Z,1.63
2022-11-20T12:00:06.908Z,1.58
2022-11-20T12:03:39.899Z,1.53
2022-11-20T12:07:44.220Z,1.47
2022-11-20T12:11:06.160Z,1.41
2022-11-20T12:14:38.848Z,1.39
2022-11-20T12:18:22.734Z,1.36
2022-11-20T12:22:01.978Z,1.35
2022-11-20T12:25:34.379Z,1.35
2022-11-20T12:29:13.908Z,1.37
2022-11-20T12:33:18.397Z,1.40
2022-11-20T12:36:52.104Z,1.38
2022-11-20T12:40:37.686Z,1.37
2022-11-20T12:44:35.753Z,1.34
2022-11-20T12:48:30.283Z,1.33
2022-11-20T12:52:09.726Z,1.38
2022-11-20T12:55:44.783Z,1.41
2022-11-20T12:59:25.571Z,1.41
2022-11-20T13:03:23.586Z,1.41
2022-11-20T13:06:51.290Z,1.40
2022-11-20T13:10:25.680Z,1.38
2022-11-20T13:14:08.698Z,1.36
2022-11-20T13:17:39.154Z,1.34
2022-11-20T13:21:17.512Z,1.32
2022-11-20T13:24:53.865Z,1.28
2022-11-20T13:28:32.437Z,1.25
2022-11-20T13:32:16.133Z,1.21
2022-11-20T13:35:45.376Z,1.21
2022-11-20T13:39:13.370Z,1.24
2022-11-20T13:42:45.595Z,1.28
2022-11-20T13:46:13.030Z,1.27
2022-11-20T13:49:45.358Z,1.25
2022-11-20T13:53:27.786Z,1.21
2022-11-20T13:57:06.917Z,1.16
2022-11-20T14:00:33.904Z,1.09
2022-11-20T14:04:08.580Z,1.03
2022-11-20T14:07:42.837Z,0.97
2022-11-20T14:11:17.959Z,0.93
2022-11-20T14:14:52.428Z,0.90
2022-11-20T14:18:23.963Z,0.90
2022-11-20T14:21:53.315Z,0.89
2022-11-20T14:25:28.017Z,0.88
2022-11-20T14:28:55.733Z,0.87
2022-11-20T14:32:26.097Z,0.88
2022-11-20T14:35:55.201Z,0.89
2022-11-20T14:39:32.893Z,0.87
2022-11-20T14:43:00.953Z,0.85
2022-11-20T14:46:29.805Z,0.82
2022-11-20T14:49:57.992Z,0.77
2022-11-20T14:53:27.621Z,0.71
2022-11-20T14:57:00.689Z,0.67
2022-11-20T15:00:28.903Z,0.62
2022-11-20T15:04:03.704Z,0.58
2022-11-20T15:07:32.206Z,0.57
2022-11-20T15:10:59.377Z,0.55
2022-11-20T15:14:27.636Z,0.52
2022-11-20T15:17:55.076Z,0.50
2022-11-20T15:21:23.200Z,0.46
2022-11-20T15:24:49.852Z,0.41
2022-11-20T15:28:22.916Z,0.35
2022-11-20T15:31:51.939Z,0.29
2022-11-20T15:35:19.598Z,0.24
2022-11-20T15:38:46.381Z,0.19
2022-11-20T15:42:13.124Z,0.15
2022-11-20T15:45:43.448Z,0.12
2022-11-20T15:49:13.121Z,0.11
2022-11-20T15:52:42.252Z,0.11
2022-11-20T15:56:12.230Z,0.08
2022-11-20T15:59:40.884Z,0.09
2022-11-20T16:03:07.821Z,0.08
2022-11-20T16:06:34.844Z,0.11
2022-11-20T16:10:01.477Z,0.12
2022-11-20T16:13:45.824Z,0.15
2022-11-20T16:17:12.535Z,0.17
2022-11-20T16:20:39.602Z,0.18
2022-11-20T16:24:09.279Z,0.17
2022-11-20T16:27:36.403Z,0.16
2022-11-20T16:31:11.984Z,0.15
2022-11-20T16:34:38.638Z,0.16
2022-11-20T16:38:05.480Z,0.17
2022-11-20T16:41:34.761Z,0.16
2022-11-20T16:45:01.470Z,0.14
2022-11-20T16:48:28.305Z,0.13
2022-11-20T16:51:55.036Z,0.11
2022-11-20T16:55:21.982Z,0.08
2022-11-20T16:58:51.021Z,0.05
2022-11-20T17:02:18.364Z,0.02
2022-11-20T17:05:45.249Z,-0.01
2022-11-20T17:09:13.002Z,-0.04
2022-11-20T17:12:39.679Z,-0.07
2022-11-20T17:16:08.533Z,-0.09
2022-11-20T17:19:35.599Z,-0.10
2022-11-20T17:23:02.306Z,-0.11
2022-11-20T17:26:29.335Z,-0.13
2022-11-20T17:29:57.722Z,-0.17
2022-11-20T17:33:24.740Z,-0.22
2022-11-20T17:36:51.441Z,-0.29
2022-11-20T17:40:20.921Z,-0.36
2022-11-20T17:43:54.147Z,-0.43
2022-11-20T17:47:21.122Z,-0.50
2022-11-20T17:50:48.211Z,-0.55
2022-11-20T17:54:15.156Z,-0.56
2022-11-20T17:57:56.475Z,-0.58
2022-11-20T18:01:23.828Z,-0.58
2022-11-20T18:04:51.164Z,-0.56
2022-11-20T18:08:18.356Z,-0.55
2022-11-20T18:11:45.721Z,-0.54
2022-11-20T18:15:12.819Z,-0.55
2022-11-20T18:18:39.524Z,-0.56
2022-11-20T18:22:07.908Z,-0.58
2022-11-20T18:25:34.707Z,-0.59
2022-11-20T18:29:07.117Z,-0.61
2022-11-20T18:32:35.476Z,-0.62
2022-11-20T18:36:12.053Z,-0.64
2022-11-20T18:39:38.774Z,-0.65
2022-11-20T18:43:24.074Z,-0.66
2022-11-20T18:46:51.374Z,-0.67
2022-11-20T18:50:19.192Z,-0.68
2022-11-20T18:53:47.516Z,-0.70
2022-11-20T18:57:15.681Z,-0.72
2022-11-20T19:00:42.645Z,-0.74
2022-11-20T19:04:12.366Z,-0.75
2022-11-20T19:07:39.073Z,-0.75
2022-11-20T19:11:10.522Z,-0.77
2022-11-20T19:14:37.767Z,-0.78
2022-11-20T19:18:04.433Z,-0.80
2022-11-20T19:21:32.432Z,-0.81
2022-11-20T19:24:59.281Z,-0.83
2022-11-20T19:28:26.543Z,-0.83
2022-11-20T19:31:53.476Z,-0.83
2022-11-20T19:35:20.920Z,-0.82
2022-11-20T19:38:50.729Z,-0.82
2022-11-20T19:42:15.997Z,-0.81
2022-11-20T19:45:42.760Z,-0.81
2022-11-20T19:49:12.097Z,-0.80
2022-11-20T19:52:37.498Z,-0.80
2022-11-20T19:56:04.282Z,-0.79
2022-11-20T19:59:31.322Z,-0.79
2022-11-20T20:02:58.032Z,-0.77
2022-11-20T20:06:26.846Z,-0.76
2022-11-20T20:09:53.820Z,-0.74
2022-11-20T20:13:20.474Z,-0.72
2022-11-20T20:25:58.114Z,-0.72
2022-11-20T20:29:25.666Z,-0.82
2022-11-20T20:32:56.242Z,-0.95
2022-11-20T20:36:25.267Z,-1.11
2022-11-20T20:39:52.009Z,-1.29
2022-11-20T20:43:18.949Z,-1.45
2022-11-20T20:46:45.680Z,-1.58
2022-11-20T20:50:14.190Z,-1.70
2022-11-20T20:53:41.151Z,-1.81
2022-11-20T20:57:07.947Z,-1.93
2022-11-20T21:00:34.868Z,-2.04
2022-11-20T21:04:01.681Z,-2.17
2022-11-20T21:07:28.739Z,-2.30
2022-11-20T21:10:57.505Z,-2.40
2022-11-20T21:14:24.572Z,-2.49
2022-11-20T21:17:51.801Z,-2.58
2022-11-20T21:21:37.209Z,-2.64
2022-11-20T21:25:04.301Z,-2.70
2022-11-20T21:28:32.238Z,-2.75
2022-11-20T21:31:59.798Z,-2.81
2022-11-20T21:35:26.498Z,-2.88
2022-11-20T21:38:55.111Z,-2.94
2022-11-20T21:42:22.260Z,-2.98
2022-11-20T21:45:48.890Z,-3.03
2022-11-20T21:49:17.766Z,-3.10
2022-11-20T21:52:44.454Z,-3.16
2022-11-20T21:56:16.380Z,-3.23
2022-11-20T21:59:45.698Z,-3.29
2022-11-20T22:03:12.739Z,-3.36
2022-11-20T22:06:39.593Z,-3.41
2022-11-20T22:10:08.212Z,-3.48
2022-11-20T22:13:52.963Z,-3.54
2022-11-20T22:17:40.848Z,-3.61
2022-11-20T22:21:08.870Z,-3.66
2022-11-20T22:24:36.006Z,-3.72
2022-11-20T22:28:03.390Z,-3.79
2022-11-20T22:31:31.593Z,-3.86
2022-11-20T22:34:58.725Z,-3.91
2022-11-20T22:38:29.647Z,-3.95
2022-11-20T22:41:56.676Z,-4.00
2022-11-20T22:45:23.854Z,-4.05
2022-11-20T22:48:54.690Z,-4.08
2022-11-20T22:52:22.281Z,-4.12
2022-11-20T22:55:53.219Z,-4.14
2022-11-20T22:59:20.305Z,-4.15
2022-11-20T23:02:48.137Z,-4.16
2022-11-20T23:06:16.215Z,-4.21
2022-11-20T23:09:43.200Z,-4.28
2022-11-20T23:13:09.909Z,-4.35
2022-11-20T23:16:37.148Z,-4.42
2022-11-20T23:20:03.947Z,-4.47
2022-11-20T23:23:31.341Z,-4.54
2022-11-20T23:26:58.509Z,-4.58
2022-11-20T23:30:25.711Z,-4.61
2022-11-20T23:33:53.296Z,-4.66
2022-11-20T23:37:20.140Z,-4.70
2022-11-20T23:40:50.885Z,-4.74
2022-11-20T23:44:17.553Z,-4.78
2022-11-20T23:47:44.340Z,-4.80
2022-11-20T23:51:10.974Z,-4.82
2022-11-20T23:54:37.624Z,-4.84
2022-11-20T23:58:05.539Z,-4.84
